Time;durP1;ratioP1;P1;durP2;ratioP2;P2;SDS_P1;SDS_P2;PMS_P1;PMS_P2;Temp;Humidity;BMP_temperature;BMP_pressure;BME280_temperature;BME280_humidity;BME280_pressure;Samples;Min_cycle;Max_cycle;Signal;HPM_P1;HPM_P2
2021/12/19 00:13:25;;;;;;;7.10;2.97;;;18.80;70.10;;;;;;10581503;28;20054;-66
2021/12/19 00:18:30;;;;;;;5.18;2.85;;;18.80;70.20;;;;;;10582190;28;20055;-64
2021/12/19 00:23:35;;;;;;;4.32;2.45;;;18.80;70.20;;;;;;10581499;28;20064;-64
2021/12/19 00:28:40;;;;;;;7.32;2.33;;;18.70;70.30;;;;;;10581914;28;20450;-64
2021/12/19 00:33:48;;;;;;;5.45;2.50;;;18.70;70.40;;;;;;10581716;28;20043;-65
2021/12/19 00:38:53;;;;;;;5.57;2.30;;;18.70;70.40;;;;;;10563998;28;20092;-66
2021/12/19 00:44:12;;;;;;;4.57;2.42;;;18.70;71.00;;;;;;10547398;28;20097;-66
2021/12/19 00:49:23;;;;;;;6.45;2.75;;;18.70;70.40;;;;;;10563055;28;20060;-66
2021/12/19 00:54:28;;;;;;;7.68;2.22;;;18.60;70.40;;;;;;10580607;28;20401;-66
2021/12/19 00:59:36;;;;;;;7.47;2.47;;;18.60;70.40;;;;;;10563372;28;20066;-65
2021/12/19 01:04:46;;;;;;;5.25;2.20;;;18.60;70.40;;;;;;10587302;28;20047;-66
2021/12/19 01:09:55;;;;;;;5.15;2.40;;;18.60;70.40;;;;;;10599114;27;20047;-65
2021/12/19 01:15:00;;;;;;;6.75;1.83;;;18.60;70.40;;;;;;10631415;27;20411;-65
2021/12/19 01:20:18;;;;;;;9.18;2.20;;;18.60;70.30;;;;;;10630903;27;20475;-65
2021/12/19 01:25:23;;;;;;;10.60;2.60;;;18.60;70.40;;;;;;10621702;27;20051;-65
2021/12/19 01:30:29;;;;;;;6.57;2.03;;;18.60;70.40;;;;;;10594855;27;20047;-65
2021/12/19 01:35:34;;;;;;;5.03;2.22;;;18.50;70.40;;;;;;10587926;27;20085;-66
2021/12/19 01:40:39;;;;;;;4.45;2.10;;;18.50;70.30;;;;;;10630269;27;20051;-65
2021/12/19 01:45:47;;;;;;;4.35;2.00;;;18.50;70.40;;;;;;10611824;27;20043;-65
2021/12/19 01:50:58;;;;;;;5.80;1.90;;;18.50;70.40;;;;;;10609566;27;20047;-65
2021/12/19 01:56:07;;;;;;;5.20;2.58;;;18.50;71.00;;;;;;10587567;28;20047;-64
2021/12/19 02:01:15;;;;;;;5.80;1.90;;;18.50;70.40;;;;;;10587081;28;20093;-65
2021/12/19 02:06:23;;;;;;;5.95;2.28;;;18.40;70.40;;;;;;10618875;27;20131;-65
2021/12/19 02:11:35;;;;;;;8.75;1.67;;;18.50;70.50;;;;;;10627747;27;20043;-65
2021/12/19 02:16:41;;;;;;;2.97;1.33;;;18.40;70.30;;;;;;10611253;27;20055;-65
2021/12/19 02:21:46;;;;;;;1.90;0.70;;;18.50;70.30;;;;;;10586092;28;20044;-65
2021/12/19 02:26:51;;;;;;;1.60;0.70;;;18.50;70.30;;;;;;10612154;27;20104;-64
2021/12/19 02:31:56;;;;;;;0.85;0.60;;;18.40;70.10;;;;;;10628564;27;20047;-66
2021/12/19 02:37:31;;;;;;;0.40;0.40;;;18.40;70.10;;;;;;10628032;27;20068;-66
2021/12/19 02:48:12;;;;;;;5.20;0.55;;;18.40;70.10;;;;;;10627530;27;20104;-65
2021/12/19 02:53:35;;;;;;;1.38;0.50;;;18.40;70.20;;;;;;10627274;27;20064;-65
2021/12/19 02:58:43;;;;;;;1.20;0.30;;;18.40;70.30;;;;;;10627217;27;20051;-65
2021/12/19 03:03:51;;;;;;;0.43;0.43;;;18.40;70.40;;;;;;10626928;27;20051;-65
2021/12/19 03:09:03;;;;;;;1.15;0.90;;;18.30;70.40;;;;;;10620396;27;20388;-65
2021/12/19 03:19:32;;;;;;;3.17;0.90;;;18.30;71.00;;;;;;10623437;27;20061;-66
2021/12/19 03:24:37;;;;;;;4.72;1.17;;;18.30;70.30;;;;;;10626513;27;20064;-65
2021/12/19 03:29:42;;;;;;;5.40;1.10;;;18.30;70.30;;;;;;10626300;27;20043;-65
2021/12/19 03:34:47;;;;;;;6.38;1.10;;;18.30;70.30;;;;;;10626224;27;20483;-65
2021/12/19 03:40:09;;;;;;;4.18;0.65;;;18.30;70.30;;;;;;10607637;27;20047;-67
2021/12/19 03:45:18;;;;;;;7.13;0.90;;;18.30;70.30;;;;;;10625308;27;20115;-66
2021/12/19 03:50:24;;;;;;;8.68;1.25;;;18.30;70.40;;;;;;10606957;27;20051;-66
2021/12/19 03:55:32;;;;;;;8.02;1.17;;;18.30;70.50;;;;;;10622684;27;20088;-68
2021/12/19 04:01:10;;;;;;;4.30;1.13;;;18.30;70.60;;;;;;10606769;27;20055;-68
2021/12/19 04:06:26;;;;;;;3.60;0.90;;;18.30;70.50;;;;;;10581371;28;20040;-67
2021/12/19 04:11:58;;;;;;;4.13;0.90;;;18.30;70.50;;;;;;10606623;27;20104;-67
2021/12/19 04:17:17;;;;;;;3.30;1.00;;;18.40;70.60;;;;;;10581277;28;20056;-69
2021/12/19 04:22:28;;;;;;;7.93;0.75;;;18.50;70.40;;;;;;10581987;28;20069;-67
2021/12/19 04:27:43;;;;;;;3.35;0.70;;;18.50;70.30;;;;;;10581900;28;20052;-69
2021/12/19 04:33:07;;;;;;;1.42;0.60;;;18.70;70.00;;;;;;10581079;28;20101;-68
2021/12/19 04:44:22;;;;;;;1.27;0.60;;;19.20;69.20;;;;;;10590536;28;20039;-68
2021/12/19 05:14:05;;;;;;;1.52;0.70;;;19.50;68.80;;;;;;10588697;28;20097;-67
2021/12/19 05:15:48;;;;;;;5.97;0.63;;;19.60;70.00;;;;;;10588613;28;20055;-66
2021/12/19 05:21:00;;;;;;;1.85;0.77;;;19.70;70.00;;;;;;10588471;28;20140;-67
2021/12/19 05:26:10;;;;;;;4.28;0.80;;;19.80;70.60;;;;;;10588693;28;20048;-67
2021/12/19 05:31:22;;;;;;;6.50;0.82;;;19.80;71.60;;;;;;10570755;28;20074;-68
2021/12/19 05:47:03;;;;;;;5.15;0.65;;;20.00;72.80;;;;;;10587064;28;20442;-67
2021/12/19 05:52:12;;;;;;;3.53;0.80;;;20.00;73.50;;;;;;10587109;28;20476;-67
2021/12/19 05:57:20;;;;;;;4.40;0.75;;;20.10;73.50;;;;;;10570256;28;20039;-69
2021/12/19 06:02:30;;;;;;;5.07;0.60;;;20.10;73.20;;;;;;10586678;28;20047;-68
2021/12/19 06:07:42;;;;;;;4.68;0.43;;;20.20;73.10;;;;;;10587855;28;20070;-67
2021/12/19 06:12:50;;;;;;;1.85;0.40;;;20.20;73.40;;;;;;10587029;28;20040;-59
2021/12/19 06:17:55;;;;;;;187.05;29.33;;;20.50;72.90;;;;;;10586339;28;20109;-57
2021/12/19 06:23:01;;;;;;;143.73;20.33;;;20.60;72.20;;;;;;10585489;27;20084;-58
2021/12/19 06:28:06;;;;;;;105.32;14.10;;;20.50;72.20;;;;;;10627994;27;20043;-58
2021/12/19 06:33:10;;;;;;;76.53;10.05;;;20.40;72.50;;;;;;10593166;27;20173;-58
2021/12/19 06:38:15;;;;;;;51.42;7.07;;;20.30;72.50;;;;;;10592849;27;20553;-58
2021/12/19 06:43:20;;;;;;;48.03;6.20;;;20.20;72.50;;;;;;10628248;27;20047;-57
2021/12/19 06:48:25;;;;;;;31.73;4.88;;;20.10;72.40;;;;;;10627944;27;20047;-58
2021/12/19 06:53:30;;;;;;;12.82;2.95;;;20.10;72.40;;;;;;10627730;27;20547;-58
2021/12/19 06:58:36;;;;;;;12.07;2.38;;;20.10;72.30;;;;;;10627692;27;20047;-58
2021/12/19 07:03:41;;;;;;;15.00;2.35;;;20.00;72.20;;;;;;10627507;27;20073;-57
2021/12/19 07:08:46;;;;;;;6.35;1.75;;;20.00;72.20;;;;;;10627177;27;20061;-57
2021/12/19 07:13:53;;;;;;;4.15;1.30;;;20.00;72.20;;;;;;10626462;27;20484;-58
2021/12/19 07:18:58;;;;;;;6.03;1.13;;;19.90;72.00;;;;;;10626997;27;20453;-58
2021/12/19 07:24:03;;;;;;;3.75;0.93;;;19.90;71.90;;;;;;10626576;27;20043;-57
2021/12/19 07:29:08;;;;;;;2.53;0.98;;;19.90;71.90;;;;;;10627019;27;20106;-58
2021/12/19 07:34:13;;;;;;;5.53;0.93;;;19.80;71.90;;;;;;10626758;27;20043;-57
2021/12/19 07:39:26;;;;;;;1.25;0.55;;;19.80;71.90;;;;;;10625946;27;20057;-58
2021/12/19 07:44:32;;;;;;;1.80;1.00;;;19.70;71.70;;;;;;10625816;27;20047;-57
2021/12/19 07:49:37;;;;;;;2.08;0.60;;;19.70;71.60;;;;;;10609241;27;20062;-58
2021/12/19 07:54:42;;;;;;;2.70;0.75;;;19.70;71.50;;;;;;10625795;27;20399;-58
2021/12/19 07:59:47;;;;;;;2.85;0.55;;;19.70;71.50;;;;;;10625261;27;20051;-57
2021/12/19 08:04:52;;;;;;;1.40;0.70;;;19.60;71.40;;;;;;10625073;27;20039;-58
2021/12/19 08:15:15;;;;;;;3.05;0.70;;;19.60;71.30;;;;;;10624525;27;20051;-58
2021/12/19 08:20:21;;;;;;;1.08;0.50;;;19.50;71.20;;;;;;10626392;27;20062;-57
2021/12/19 08:25:26;;;;;;;3.42;0.65;;;19.50;71.20;;;;;;10625061;27;20088;-58
2021/12/19 08:30:31;;;;;;;3.88;0.80;;;19.50;71.10;;;;;;10606376;27;20491;-57
2021/12/19 08:35:36;;;;;;;2.58;0.80;;;19.40;71.10;;;;;;10624217;28;20395;-57
2021/12/19 08:40:43;;;;;;;2.42;0.90;;;19.50;71.10;;;;;;10624150;28;20043;-57
2021/12/19 08:45:49;;;;;;;1.27;0.60;;;19.40;71.00;;;;;;10624191;28;20047;-57
2021/12/19 08:50:54;;;;;;;0.82;0.60;;;19.30;71.00;;;;;;10606012;28;20051;-58
2021/12/19 08:55:59;;;;;;;1.55;0.52;;;19.40;71.00;;;;;;10606649;28;20039;-57
2021/12/19 09:01:04;;;;;;;2.28;0.73;;;19.30;70.90;;;;;;10623380;28;20499;-58
2021/12/19 09:06:11;;;;;;;0.52;0.52;;;19.30;70.90;;;;;;10624215;28;20040;-58
2021/12/19 09:11:16;;;;;;;2.78;0.93;;;19.30;70.80;;;;;;10606946;28;20068;-57
2021/12/19 09:16:21;;;;;;;1.73;1.00;;;19.20;71.30;;;;;;10622759;28;20047;-58
2021/12/19 09:21:46;;;;;;;0.77;0.63;;;19.20;70.70;;;;;;10605322;28;20069;-57
2021/12/19 09:26:51;;;;;;;2.30;0.93;;;19.20;70.60;;;;;;10611661;27;20491;-58
2021/12/19 09:31:58;;;;;;;1.27;0.60;;;19.20;70.60;;;;;;10613023;27;20092;-57
2021/12/19 09:37:03;;;;;;;2.08;0.80;;;19.10;70.50;;;;;;10630943;27;20039;-57
2021/12/19 09:42:13;;;;;;;1.45;0.70;;;19.10;70.40;;;;;;10630291;27;20483;-58
2021/12/19 09:47:18;;;;;;;1.98;0.90;;;19.10;70.40;;;;;;10630783;27;20043;-57
2021/12/19 09:52:24;;;;;;;3.45;1.08;;;19.10;70.40;;;;;;10630291;27;20039;-57
2021/12/19 09:57:29;;;;;;;1.27;0.63;;;19.10;70.30;;;;;;10629353;27;20047;-57
2021/12/19 10:02:33;;;;;;;1.20;0.68;;;19.00;70.30;;;;;;10611965;27;20487;-57
2021/12/19 10:07:47;;;;;;;1.10;0.73;;;19.00;70.20;;;;;;10629696;27;20043;-57
2021/12/19 10:12:58;;;;;;;1.65;0.73;;;19.00;70.20;;;;;;10629518;27;20065;-58
2021/12/19 10:18:11;;;;;;;1.55;0.80;;;19.00;70.20;;;;;;10610806;27;20039;-58
2021/12/19 10:23:31;;;;;;;2.33;0.80;;;19.00;70.10;;;;;;10629277;27;20039;-57
2021/12/19 10:28:52;;;;;;;1.20;0.70;;;18.90;70.00;;;;;;10629032;27;20047;-57
2021/12/19 10:33:57;;;;;;;1.48;0.70;;;18.90;70.00;;;;;;10628571;27;20040;-57
2021/12/19 10:39:03;;;;;;;0.95;0.80;;;18.90;70.00;;;;;;10628130;27;20068;-57
2021/12/19 10:45:29;;;;;;;1.13;0.93;;;18.90;70.00;;;;;;10629031;27;20057;-57
2021/12/19 10:49:34;;;;;;;1.45;0.85;;;18.90;69.90;;;;;;10627696;27;20445;-58
2021/12/19 10:55:00;;;;;;;1.75;0.98;;;18.90;69.80;;;;;;10642050;27;20060;-57
2021/12/19 11:00:09;;;;;;;2.05;1.00;;;18.80;69.70;;;;;;10627702;27;20547;-57
2021/12/19 11:05:37;;;;;;;3.15;1.05;;;18.80;69.70;;;;;;10627651;27;20043;-58
2021/12/19 11:10:42;;;;;;;2.17;1.17;;;18.80;69.60;;;;;;10626727;27;20421;-57
2021/12/19 11:15:49;;;;;;;2.10;0.90;;;18.80;69.60;;;;;;10608120;27;20051;-57
2021/12/19 11:20:54;;;;;;;2.15;0.75;;;18.80;69.60;;;;;;10626692;27;20092;-57
2021/12/19 11:25:59;;;;;;;3.35;0.98;;;18.70;69.50;;;;;;10608654;27;20050;-58
2021/12/19 11:31:06;;;;;;;1.92;0.90;;;18.70;69.50;;;;;;10626403;27;20441;-57
2021/12/19 11:36:11;;;;;;;1.20;0.90;;;18.70;69.40;;;;;;10626649;27;20092;-57
2021/12/19 11:41:16;;;;;;;1.98;1.00;;;18.70;70.00;;;;;;10626318;27;20399;-57
2021/12/19 11:46:44;;;;;;;1.73;0.90;;;18.70;69.40;;;;;;10625591;27;20096;-57
2021/12/19 11:52:09;;;;;;;2.08;0.90;;;18.70;69.30;;;;;;10625905;27;20035;-57
2021/12/19 11:57:20;;;;;;;1.48;0.90;;;18.60;69.30;;;;;;10625021;27;20096;-57
2021/12/19 12:02:26;;;;;;;1.23;0.90;;;18.60;69.30;;;;;;10625175;27;20046;-58
2021/12/19 12:07:57;;;;;;;2.42;1.00;;;18.60;69.30;;;;;;10624589;27;20047;-57
2021/12/19 12:13:04;;;;;;;2.72;1.23;;;18.60;69.30;;;;;;10624732;27;20480;-58
2021/12/19 12:18:36;;;;;;;2.57;0.97;;;18.60;69.30;;;;;;10624985;27;20043;-57
2021/12/19 12:23:58;;;;;;;0.90;0.90;;;18.50;69.20;;;;;;10624679;27;20146;-58
2021/12/19 12:29:04;;;;;;;2.00;1.20;;;18.50;69.20;;;;;;10606359;27;20050;-57
2021/12/19 12:34:12;;;;;;;1.55;1.02;;;18.50;69.20;;;;;;10623696;27;20047;-57
2021/12/19 12:39:23;;;;;;;1.92;1.30;;;18.50;69.20;;;;;;10606121;28;20065;-58
2021/12/19 12:44:28;;;;;;;2.28;1.13;;;18.50;69.20;;;;;;10624193;28;20038;-57
2021/12/19 12:49:34;;;;;;;1.23;1.00;;;18.50;69.20;;;;;;10624074;28;20411;-57
2021/12/19 12:54:41;;;;;;;1.60;1.20;;;18.50;69.20;;;;;;10624016;28;20043;-57
2021/12/19 12:59:45;;;;;;;2.58;1.52;;;18.50;69.20;;;;;;10627890;27;20051;-57
2021/12/19 13:04:52;;;;;;;2.38;1.27;;;18.40;69.10;;;;;;10631862;27;20047;-57
2021/12/19 13:10:00;;;;;;;2.17;1.40;;;18.40;69.10;;;;;;10613231;27;20097;-58
2021/12/19 13:15:11;;;;;;;3.00;1.27;;;18.40;69.10;;;;;;10631562;27;20500;-57
2021/12/19 13:20:25;;;;;;;3.63;1.58;;;18.40;69.30;;;;;;10613131;27;20047;-57
2021/12/19 13:25:40;;;;;;;1.48;1.30;;;18.40;69.30;;;;;;10597527;27;20047;-57
2021/12/19 13:30:46;;;;;;;2.53;1.45;;;18.50;69.30;;;;;;10613122;27;20403;-58
2021/12/19 13:35:56;;;;;;;1.33;1.10;;;18.70;69.20;;;;;;10630330;27;20043;-57
2021/12/19 13:41:06;;;;;;;1.95;1.05;;;18.80;69.00;;;;;;10630403;27;20411;-58
2021/12/19 13:46:13;;;;;;;2.45;1.30;;;18.90;68.80;;;;;;10630687;27;20441;-58
2021/12/19 13:51:23;;;;;;;1.73;1.33;;;19.00;68.60;;;;;;10630504;27;20069;-58
2021/12/19 13:56:35;;;;;;;2.42;1.33;;;19.10;68.40;;;;;;10612495;27;20039;-58
2021/12/19 14:01:40;;;;;;;1.48;1.10;;;19.20;68.30;;;;;;10629565;27;20116;-58
2021/12/19 14:06:48;;;;;;;2.90;1.13;;;19.30;68.90;;;;;;10611871;27;20076;-58
2021/12/19 14:12:01;;;;;;;2.28;1.48;;;19.30;68.10;;;;;;10628295;27;20047;-58
2021/12/19 14:17:11;;;;;;;1.73;1.00;;;19.40;68.00;;;;;;10629138;27;20077;-58
2021/12/19 14:22:18;;;;;;;1.63;1.15;;;19.50;67.90;;;;;;10629308;27;20043;-58
2021/12/19 14:27:35;;;;;;;1.37;1.17;;;19.60;67.80;;;;;;10610643;27;20054;-58
2021/12/19 14:32:52;;;;;;;1.90;1.15;;;19.60;67.80;;;;;;10629070;27;20374;-58
2021/12/19 14:38:00;;;;;;;1.45;1.00;;;19.60;67.70;;;;;;10643375;27;20035;-57
2021/12/19 14:43:10;;;;;;;;;;;19.60;67.60;;;;;;10610710;27;20039;-57
2021/12/19 14:48:18;;;;;;;;;;;19.60;67.60;;;;;;10628734;27;19926;-57
2021/12/19 14:53:23;;;;;;;2.15;1.35;;;19.60;67.60;;;;;;10628126;27;19976;-57
2021/12/19 14:58:29;;;;;;;1.73;1.17;;;19.60;67.60;;;;;;10627699;27;20096;-57
2021/12/19 15:03:40;;;;;;;1.25;1.10;;;19.60;67.70;;;;;;10609323;27;20488;-57
2021/12/19 15:08:46;;;;;;;1.42;1.33;;;19.60;67.60;;;;;;10627396;27;20047;-57
2021/12/19 15:13:52;;;;;;;2.05;1.27;;;19.60;67.60;;;;;;10609247;27;20039;-57
2021/12/19 15:18:58;;;;;;;2.42;1.58;;;19.60;67.60;;;;;;10608851;27;20552;-58
2021/12/19 15:24:04;;;;;;;1.67;1.48;;;19.60;67.70;;;;;;10608227;27;20039;-57
2021/12/19 15:29:09;;;;;;;1.75;1.50;;;19.60;67.70;;;;;;10626585;27;20039;-58
2021/12/19 15:34:14;;;;;;;1.67;1.30;;;19.50;67.70;;;;;;10626901;27;20047;-57
2021/12/19 15:39:19;;;;;;;2.58;1.77;;;19.50;67.70;;;;;;10626006;27;20035;-57
2021/12/19 15:44:24;;;;;;;2.20;1.60;;;19.50;67.60;;;;;;10626459;27;20047;-58
2021/12/19 15:49:29;;;;;;;1.55;1.40;;;19.50;67.70;;;;;;10626639;27;20080;-58
2021/12/19 15:54:35;;;;;;;1.50;1.10;;;19.50;67.70;;;;;;10627087;27;20483;-57
2021/12/19 15:59:43;;;;;;;2.13;1.40;;;19.40;67.70;;;;;;10625997;27;20487;-58
2021/12/19 16:04:48;;;;;;;1.88;1.30;;;19.50;67.80;;;;;;10625409;27;20035;-58
2021/12/19 16:09:54;;;;;;;1.40;1.30;;;19.50;67.80;;;;;;10624268;27;20100;-58
2021/12/19 16:15:01;;;;;;;289.33;46.58;;;19.50;67.70;;;;;;10624616;27;20100;-58
2021/12/19 16:20:08;;;;;;;1.95;1.13;;;19.50;67.60;;;;;;10624767;27;20043;-58
2021/12/19 16:25:13;;;;;;;1.55;1.27;;;19.50;67.50;;;;;;10624002;27;20103;-58
2021/12/19 16:30:19;;;;;;;2.20;1.23;;;19.60;67.50;;;;;;10625696;27;20039;-58
2021/12/19 16:35:26;;;;;;;2.20;1.50;;;19.70;67.50;;;;;;10637885;27;20039;-58
2021/12/19 16:40:33;;;;;;;3.50;1.90;;;19.70;67.40;;;;;;10606317;28;20077;-57
2021/12/19 16:45:40;;;;;;;3.47;1.80;;;19.80;67.20;;;;;;10623614;28;20043;-58
2021/12/19 16:50:45;;;;;;;3.17;1.88;;;19.80;67.20;;;;;;10624117;28;20040;-58
2021/12/19 16:55:50;;;;;;;3.28;2.17;;;19.90;67.10;;;;;;10622947;28;20051;-58
2021/12/19 17:00:55;;;;;;;6.53;3.10;;;19.90;67.10;;;;;;10623974;28;20487;-58
2021/12/19 17:06:01;;;;;;;11.98;5.25;;;20.00;67.10;;;;;;10638055;27;20039;-58
2021/12/19 17:11:06;;;;;;;13.27;5.65;;;20.00;66.90;;;;;;10625238;28;20471;-58
2021/12/19 17:16:16;;;;;;;15.60;6.00;;;20.00;66.90;;;;;;10604435;28;20051;-58
2021/12/19 17:21:21;;;;;;;16.02;7.05;;;20.10;66.80;;;;;;10588509;28;20380;-58
2021/12/19 17:26:27;;;;;;;14.95;6.60;;;20.10;66.80;;;;;;10623537;28;20043;-58
2021/12/19 17:31:32;;;;;;;15.38;6.07;;;20.20;66.90;;;;;;10623889;28;20434;-58
2021/12/19 17:36:38;;;;;;;14.60;6.32;;;20.20;66.90;;;;;;10623391;28;20381;-58
2021/12/19 17:41:43;;;;;;;12.27;5.88;;;20.20;66.80;;;;;;10637335;27;20088;-57
2021/12/19 17:46:49;;;;;;;12.85;6.00;;;20.30;66.80;;;;;;10628124;27;20373;-58
2021/12/19 17:51:54;;;;;;;12.40;5.38;;;20.30;66.70;;;;;;10630562;27;20065;-58
2021/12/19 17:56:59;;;;;;;12.30;5.38;;;20.30;66.80;;;;;;10629509;27;20047;-57
2021/12/19 18:02:05;;;;;;;11.82;5.38;;;20.30;66.70;;;;;;10630121;27;20091;-57
2021/12/19 18:07:09;;;;;;;12.23;5.68;;;20.30;66.60;;;;;;10630925;27;20411;-57
2021/12/19 18:12:14;;;;;;;13.10;5.88;;;20.40;66.70;;;;;;10629362;27;20051;-57
2021/12/19 18:17:19;;;;;;;12.55;5.47;;;20.40;66.60;;;;;;10628816;27;20407;-58
2021/12/19 18:22:24;;;;;;;14.35;6.00;;;20.40;66.60;;;;;;10629327;27;20051;-57
2021/12/19 18:27:30;;;;;;;16.75;7.35;;;20.30;66.80;;;;;;10600900;27;20057;-57
2021/12/19 18:32:37;;;;;;;18.17;7.63;;;20.30;67.10;;;;;;10560663;28;20548;-58
2021/12/19 18:37:43;;;;;;;19.63;6.63;;;20.30;67.30;;;;;;10555809;28;20541;-58
2021/12/19 18:43:18;;;;;;;16.10;6.47;;;20.30;67.50;;;;;;10565895;28;20069;-58
2021/12/19 18:59:06;;;;;;;8.60;3.47;;;20.20;68.30;;;;;;10584040;28;20121;-57
2021/12/19 19:04:24;;;;;;;7.30;3.55;;;20.30;68.40;;;;;;10585102;28;20036;-58
2021/12/19 19:09:35;;;;;;;8.23;3.47;;;20.30;68.30;;;;;;10566467;28;20048;-56
2021/12/19 19:14:50;;;;;;;7.75;3.55;;;20.40;68.10;;;;;;10566394;28;20055;-57
2021/12/19 19:19:55;;;;;;;8.15;3.33;;;20.50;68.20;;;;;;10565648;28;20044;-56
2021/12/19 19:25:00;;;;;;;8.07;3.53;;;20.50;68.00;;;;;;10584250;28;20047;-57
2021/12/19 19:30:09;;;;;;;8.02;3.08;;;20.40;68.10;;;;;;10565576;28;20484;-57
2021/12/19 19:35:15;;;;;;;6.25;3.08;;;20.50;68.20;;;;;;10549223;28;20043;-56
2021/12/19 19:40:39;;;;;;;5.95;2.78;;;20.50;68.20;;;;;;10583517;28;20373;-57
2021/12/19 19:51:06;;;;;;;5.40;2.63;;;20.40;68.20;;;;;;10565303;28;20040;-56
2021/12/19 19:56:11;;;;;;;5.28;2.80;;;20.40;68.30;;;;;;10548301;28;20121;-57
2021/12/19 20:01:33;;;;;;;5.90;3.03;;;20.40;68.30;;;;;;10548185;28;20039;-57
2021/12/19 20:06:37;;;;;;;6.55;2.85;;;20.40;68.30;;;;;;10564105;28;20052;-57
2021/12/19 20:11:44;;;;;;;6.97;2.58;;;20.40;68.40;;;;;;10531248;28;20052;-57
2021/12/19 20:16:57;;;;;;;5.88;2.80;;;20.40;68.40;;;;;;10530518;28;20056;-57
2021/12/19 20:22:07;;;;;;;6.00;2.75;;;20.30;68.40;;;;;;10564123;28;20116;-58
2021/12/19 20:27:22;;;;;;;9.50;3.70;;;20.40;68.50;;;;;;10581170;28;20047;-57
2021/12/19 20:32:28;;;;;;;13.70;3.13;;;20.30;68.40;;;;;;10547623;28;20036;-58
2021/12/19 20:37:34;;;;;;;8.18;2.65;;;20.30;68.40;;;;;;10563408;28;20615;-58
2021/12/19 20:42:39;;;;;;;6.53;3.13;;;20.30;68.60;;;;;;10595922;28;20057;-58
2021/12/19 20:47:44;;;;;;;6.28;2.92;;;20.30;68.50;;;;;;10563193;28;20056;-58
2021/12/19 20:52:49;;;;;;;12.68;5.75;;;20.30;68.40;;;;;;10547039;28;20081;-58
2021/12/19 20:57:54;;;;;;;20.98;10.23;;;20.20;68.40;;;;;;10563737;28;20044;-56
2021/12/19 21:02:59;;;;;;;16.15;7.43;;;20.20;68.40;;;;;;10581306;28;20044;-57
2021/12/19 21:08:05;;;;;;;21.25;8.43;;;20.20;68.60;;;;;;10562788;28;20055;-57
2021/12/19 21:13:11;;;;;;;23.95;6.55;;;20.20;69.00;;;;;;10581156;28;20434;-57
2021/12/19 21:23:43;;;;;;;12.20;6.78;;;20.10;69.20;;;;;;10581416;28;20389;-56
2021/12/19 21:28:48;;;;;;;16.17;5.82;;;20.00;69.10;;;;;;10561361;28;20047;-56
2021/12/19 21:33:59;;;;;;;10.13;4.70;;;19.90;69.00;;;;;;10582389;28;20051;-56
2021/12/19 21:39:05;;;;;;;10.52;4.50;;;19.90;69.00;;;;;;10587728;28;20061;-56
2021/12/19 21:44:10;;;;;;;7.00;3.70;;;19.80;68.70;;;;;;10569471;28;20047;-56
2021/12/19 21:49:15;;;;;;;13.25;3.95;;;19.70;68.60;;;;;;10587658;28;20463;-56
2021/12/19 21:54:20;;;;;;;7.82;3.70;;;19.70;68.60;;;;;;10587830;28;20043;-56
2021/12/19 21:59:25;;;;;;;8.55;3.90;;;19.60;68.30;;;;;;10587072;28;20096;-56
2021/12/19 22:04:30;;;;;;;9.90;4.22;;;19.60;68.20;;;;;;10587573;28;20047;-56
2021/12/19 22:09:45;;;;;;;8.20;3.95;;;19.50;68.10;;;;;;10601605;28;20568;-56
2021/12/19 22:20:13;;;;;;;7.57;3.90;;;19.50;67.70;;;;;;10586056;28;20044;-57
2021/12/19 22:25:18;;;;;;;11.15;4.35;;;19.40;67.60;;;;;;10586850;28;20052;-57
2021/12/19 22:30:31;;;;;;;37.88;5.35;;;19.40;67.70;;;;;;10585432;28;20044;-57
2021/12/19 22:35:36;;;;;;;10.38;4.40;;;19.40;67.40;;;;;;10586386;28;20040;-57
2021/12/19 22:40:41;;;;;;;15.70;6.05;;;19.30;67.50;;;;;;10585375;28;20051;-57
2021/12/19 22:45:47;;;;;;;11.52;4.13;;;19.30;67.40;;;;;;10585174;28;20491;-58
2021/12/19 22:50:51;;;;;;;22.13;6.15;;;19.30;67.40;;;;;;10585301;28;20048;-56
2021/12/19 22:55:56;;;;;;;26.45;8.93;;;19.20;67.30;;;;;;10567783;28;20096;-56
2021/12/19 23:01:07;;;;;;;9.18;4.22;;;19.20;67.10;;;;;;10584855;28;20101;-57
2021/12/19 23:06:13;;;;;;;33.95;12.15;;;19.10;66.80;;;;;;10585164;28;20032;-56
2021/12/19 23:11:21;;;;;;;11.05;4.72;;;19.10;66.70;;;;;;10584188;28;20047;-57
2021/12/19 23:16:38;;;;;;;7.53;4.25;;;19.10;66.70;;;;;;10584505;28;20101;-57
2021/12/19 23:21:44;;;;;;;21.03;10.07;;;19.10;66.50;;;;;;10581509;28;20442;-57
2021/12/19 23:26:49;;;;;;;23.00;12.75;;;19.00;66.50;;;;;;10584963;28;20047;-57
2021/12/19 23:31:54;;;;;;;17.45;10.23;;;19.00;66.20;;;;;;10583958;28;20069;-57
2021/12/19 23:37:15;;;;;;;14.48;8.60;;;19.00;66.00;;;;;;10584375;28;20092;-57
2021/12/19 23:42:37;;;;;;;11.80;7.18;;;19.00;65.90;;;;;;10583363;28;20036;-57
2021/12/19 23:47:42;;;;;;;30.45;14.50;;;18.90;65.90;;;;;;10582914;28;20047;-57
2021/12/19 23:52:48;;;;;;;11.38;6.70;;;18.90;65.90;;;;;;10564870;28;20073;-57
2021/12/19 23:57:53;;;;;;;25.58;9.55;;;18.90;65.80;;;;;;10582302;28;20069;-57
